This is the latest recevied weather packets stored in our database for station/object IK2ILW-4. If no packets are shown the sender has not sent any weather packets the latest 10 day(s).
| Time | Temp. | Humidity | Pressure | Rain* | Wind** | Luminosity | Snow |
|---|---|---|---|---|---|---|---|
| 1787479372 | 17.78° C | 75% | 1023.7 hPa | 0 mm | - | 796 W/m² | - |
| 1787479073 | 17.22° C | 78% | 1023.8 hPa | 0 mm | - | 766 W/m² | - |
| 1787478753 | 17.22° C | 80% | 1023.8 hPa | 0 mm | - | 733 W/m² | - |
| 1787478464 | 16.67° C | 81% | 1023.8 hPa | 0 mm | - | 744 W/m² | - |
| 1787478158 | 16.11° C | 84% | 1023.9 hPa | 0 mm | - | 724 W/m² | - |
| 1787477856 | 16.11° C | 86% | 1023.9 hPa | 0 mm | - | 485 W/m² | - |
| 1787477568 | 15.56° C | 84% | 1023.9 hPa | 0 mm | - | 283 W/m² | - |
| 1787477261 | 15.56° C | 85% | 1024.1 hPa | 0 mm | - | 315 W/m² | - |
| 1787476956 | 15° C | 85% | 1024.1 hPa | 0 mm | - | 197 W/m² | - |
| 1787476665 | 15° C | 85% | 1024.1 hPa | 0 mm | - | 165 W/m² | - |
| 1787476364 | 14.44° C | 85% | 1024.1 hPa | 0 mm | - | 151 W/m² | - |
| 1787476062 | 14.44° C | 85% | 1024.1 hPa | 0 mm | - | 137 W/m² | - |
| 1787475768 | 14.44° C | 85% | 1024.1 hPa | 0 mm | - | 107 W/m² | - |
| 1787475461 | 14.44° C | 85% | 1024 hPa | 0 mm | - | 70 W/m² | - |
| 1787475161 | 14.44° C | 85% | 1024 hPa | 0 mm | - | 58 W/m² | - |
| 1787474868 | 14.44° C | 84% | 1024 hPa | 0 mm | - | 53 W/m² | - |
| 1787474565 | 15° C | 84% | 1023.9 hPa | 0 mm | - | 49 W/m² | - |
| 1787474261 | 15° C | 84% | 1023.9 hPa | 0 mm | - | 44 W/m² | - |
| 1787473971 | 15° C | 84% | 1023.9 hPa | 0 mm | - | 39 W/m² | - |
| 1787473664 | 15° C | 83% | 1023.7 hPa | 0 mm | - | 39 W/m² | - |
| 1787473356 | 15° C | 82% | 1023.7 hPa | 0 mm | - | 44 W/m² | - |
| 1787473067 | 15° C | 82% | 1023.7 hPa | 0 mm | - | 51 W/m² | - |
| 1787472757 | 15° C | 81% | 1023.4 hPa | 0 mm | - | 58 W/m² | - |
| 1787472456 | 15° C | 80% | 1023.4 hPa | 0 mm | - | 58 W/m² | - |
| 1787472166 | 15° C | 80% | 1023.4 hPa | 0 mm | - | 58 W/m² | - |
* Rain since midnight (hover to see other rain measurements)
** Current wind speed in m/s (hover to see current wind gust speed)